Time;durP1;ratioP1;P1;durP2;ratioP2;P2;SDS_P1;SDS_P2;PMS_P1;PMS_P2;Temp;Humidity;BMP_temperature;BMP_pressure;BME280_temperature;BME280_humidity;BME280_pressure;Samples;Min_cycle;Max_cycle;Signal;HPM_P1;HPM_P2
2021/05/09 00:00:12;;;;;;;;;;;15.00;80.60;;;;;;4289710;33;20344;-70
2021/05/09 00:02:38;;;;;;;;;;;15.00;80.60;;;;;;4289171;33;20010;-71
2021/05/09 00:05:06;;;;;;;;;;;15.00;80.60;;;;;;4289392;33;20396;-70
2021/05/09 00:07:33;;;;;;;;;;;15.00;80.60;;;;;;4277835;33;20380;-71
2021/05/09 00:10:00;;;;;;;;;;;15.00;80.80;;;;;;4302639;33;20442;-70
2021/05/09 00:12:29;;;;;;;;;;;15.00;80.90;;;;;;4303083;33;20013;-70
2021/05/09 00:14:55;;;;;;;;;;;14.90;80.90;;;;;;4302549;33;20005;-71
2021/05/09 00:17:22;;;;;;;;;;;14.90;80.90;;;;;;4302765;33;20016;-71
2021/05/09 00:19:52;;;;;;;;;;;14.90;80.90;;;;;;4302698;33;20010;-71
2021/05/09 00:22:19;;;;;;;;;;;14.90;80.80;;;;;;4303044;33;20007;-71
2021/05/09 00:24:47;;;;;;;;;;;14.90;80.90;;;;;;4302651;33;20061;-70
2021/05/09 00:27:13;;;;;;;;;;;15.00;80.80;;;;;;4302991;33;20024;-71
2021/05/09 00:29:40;;;;;;;;;;;14.90;81.30;;;;;;4289641;33;20006;-70
2021/05/09 00:32:07;;;;;;;;;;;15.00;80.50;;;;;;4301559;33;20073;-71
2021/05/09 00:34:39;;;;;;;;;;;15.00;80.40;;;;;;4302944;33;20028;-70
2021/05/09 00:37:06;;;;;;;;;;;15.00;80.20;;;;;;4302973;33;20020;-70
2021/05/09 00:39:32;;;;;;;;;;;15.00;80.40;;;;;;4289544;33;20010;-71
2021/05/09 00:42:05;;;;;;;;;;;15.00;80.40;;;;;;4302467;33;20396;-71
2021/05/09 00:44:32;;;;;;;;;;;15.00;80.40;;;;;;4301676;33;20437;-71
2021/05/09 00:47:09;;;;;;;;;;;15.00;80.50;;;;;;4303019;33;20010;-71
2021/05/09 00:49:39;;;;;;;;;;;15.00;80.60;;;;;;4302560;33;20011;-71
2021/05/09 00:52:06;;;;;;;;;;;14.90;80.50;;;;;;4302837;33;20003;-71
2021/05/09 00:54:33;;;;;;;;;;;14.90;80.60;;;;;;4302579;33;20006;-71
2021/05/09 00:57:00;;;;;;;;;;;14.90;80.70;;;;;;4289181;33;20015;-71
2021/05/09 00:59:32;;;;;;;;;;;14.90;80.60;;;;;;4302691;33;20010;-71
2021/05/09 01:01:59;;;;;;;;;;;14.90;80.80;;;;;;4288755;33;20049;-71
2021/05/09 01:04:26;;;;;;;;;;;14.90;80.80;;;;;;4302589;33;20495;-71
2021/05/09 01:06:53;;;;;;;;;;;14.90;80.90;;;;;;4302304;33;20002;-71
2021/05/09 01:09:19;;;;;;;;;;;14.90;80.80;;;;;;4302386;33;20024;-71
2021/05/09 01:11:46;;;;;;;;;;;14.90;81.70;;;;;;4302642;33;20014;-71
2021/05/09 01:14:12;;;;;;;;;;;14.90;80.90;;;;;;4302107;33;20025;-71
2021/05/09 01:16:39;;;;;;;;;;;14.90;80.90;;;;;;4302304;33;20024;-71
2021/05/09 01:19:06;;;;;;;;;;;14.90;81.20;;;;;;4302905;33;20024;-71
2021/05/09 01:21:33;;;;;;;;;;;14.80;81.40;;;;;;4302438;33;20025;-71
2021/05/09 01:23:59;;;;;;;;;;;14.80;81.30;;;;;;4289277;33;20316;-71
2021/05/09 01:26:26;;;;;;;;;;;14.80;81.30;;;;;;4302247;33;20010;-71
2021/05/09 01:28:53;;;;;;;;;;;14.80;81.50;;;;;;4302170;33;20010;-71
2021/05/09 01:31:19;;;;;;;;;;;14.80;81.80;;;;;;4302203;33;20010;-71
2021/05/09 01:33:46;;;;;;;;;;;14.80;81.70;;;;;;4302269;33;20010;-71
2021/05/09 01:36:13;;;;;;;;;;;14.80;82.00;;;;;;4302402;33;19998;-71
2021/05/09 01:38:40;;;;;;;;;;;14.80;82.30;;;;;;4302546;33;20012;-71
2021/05/09 01:41:07;;;;;;;;;;;14.70;82.40;;;;;;4302444;33;20006;-71
2021/05/09 01:43:34;;;;;;;;;;;14.80;82.30;;;;;;4302085;33;20009;-71
2021/05/09 01:46:04;;;;;;;;;;;14.80;82.60;;;;;;4302157;33;20002;-71
2021/05/09 01:48:31;;;;;;;;;;;14.70;82.30;;;;;;4302180;33;20010;-71
2021/05/09 01:50:57;;;;;;;;;;;14.80;82.30;;;;;;4302235;33;20131;-71
2021/05/09 01:53:24;;;;;;;;;;;14.80;82.20;;;;;;4301789;33;20006;-71
2021/05/09 01:55:53;;;;;;;;;;;14.80;82.20;;;;;;4303171;33;20118;-71
2021/05/09 01:58:20;;;;;;;;;;;14.80;82.10;;;;;;4305116;33;20408;-71
2021/05/09 02:00:47;;;;;;;;;;;14.80;82.20;;;;;;4304315;33;20351;-71
2021/05/09 02:03:14;;;;;;;;;;;14.80;82.00;;;;;;4304131;33;20086;-71
2021/05/09 02:05:40;;;;;;;;;;;14.80;82.20;;;;;;4304788;33;20014;-71
2021/05/09 02:08:10;;;;;;;;;;;14.80;82.00;;;;;;4304670;33;20007;-71
2021/05/09 02:10:36;;;;;;;;;;;14.80;82.00;;;;;;4291220;33;20380;-71
2021/05/09 02:13:03;;;;;;;;;;;14.80;82.00;;;;;;4279131;33;20363;-71
2021/05/09 02:15:31;;;;;;;;;;;14.80;82.10;;;;;;4304652;33;20347;-71
2021/05/09 02:17:59;;;;;;;;;;;14.80;82.10;;;;;;4291098;33;20003;-71
2021/05/09 02:20:26;;;;;;;;;;;14.80;82.00;;;;;;4304602;33;20442;-71
2021/05/09 02:22:56;;;;;;;;;;;14.80;82.00;;;;;;4291383;33;20008;-71
2021/05/09 02:25:25;;;;;;;;;;;14.80;81.90;;;;;;4304196;33;20010;-71
2021/05/09 02:27:55;;;;;;;;;;;14.80;81.90;;;;;;4304770;33;20053;-71
2021/05/09 02:30:22;;;;;;;;;;;14.80;81.70;;;;;;4304096;33;20018;-71
2021/05/09 02:32:49;;;;;;;;;;;14.80;81.80;;;;;;4291574;33;20433;-71
2021/05/09 02:35:19;;;;;;;;;;;14.80;81.80;;;;;;4291355;33;20348;-71
2021/05/09 02:37:45;;;;;;;;;;;14.80;81.70;;;;;;4304004;33;20010;-71
2021/05/09 02:40:13;;;;;;;;;;;14.80;81.70;;;;;;4304328;33;20002;-71
2021/05/09 02:42:39;;;;;;;;;;;14.80;81.70;;;;;;4304256;33;20024;-71
2021/05/09 02:45:06;;;;;;;;;;;14.80;81.70;;;;;;4303172;33;20011;-71
2021/05/09 02:47:36;;;;;;;;;;;14.80;81.50;;;;;;4304102;33;20010;-71
2021/05/09 02:50:05;;;;;;;;;;;14.90;81.40;;;;;;4303838;33;20046;-71
2021/05/09 02:52:31;;;;;;;;;;;14.90;81.30;;;;;;4304022;33;20024;-71
2021/05/09 02:54:58;;;;;;;;;;;14.90;81.20;;;;;;4304134;33;20083;-71
2021/05/09 02:57:24;;;;;;;;;;;14.90;81.30;;;;;;4304223;33;20006;-71
2021/05/09 02:59:51;;;;;;;;;;;14.90;81.30;;;;;;4303807;33;20434;-71
2021/05/09 03:02:18;;;;;;;;;;;14.80;81.30;;;;;;4303721;33;20367;-71
2021/05/09 03:04:47;;;;;;;;;;;14.80;81.20;;;;;;4303687;33;20021;-71
2021/05/09 03:07:17;;;;;;;;;;;14.90;81.10;;;;;;4289941;33;20458;-71
2021/05/09 03:09:43;;;;;;;;;;;14.80;80.90;;;;;;4303940;33;20010;-71
2021/05/09 03:12:10;;;;;;;;;;;14.90;80.90;;;;;;4290431;33;20006;-71
2021/05/09 03:14:39;;;;;;;;;;;14.80;80.80;;;;;;4303649;33;20002;-71
2021/05/09 03:17:06;;;;;;;;;;;14.80;80.70;;;;;;4302767;33;20010;-71
2021/05/09 03:19:32;;;;;;;;;;;14.90;80.70;;;;;;4303622;33;20023;-71
2021/05/09 03:21:59;;;;;;;;;;;14.90;80.50;;;;;;4303470;33;20418;-71
2021/05/09 03:24:25;;;;;;;;;;;14.90;80.40;;;;;;4303131;33;20020;-71
2021/05/09 03:26:52;;;;;;;;;;;14.90;80.30;;;;;;4303559;33;20006;-71
2021/05/09 03:29:21;;;;;;;;;;;14.90;80.10;;;;;;4303631;33;20064;-71
2021/05/09 03:31:48;;;;;;;;;;;14.90;80.10;;;;;;4290158;33;20058;-71
2021/05/09 03:34:18;;;;;;;;;;;14.90;80.00;;;;;;4302537;33;20021;-71
2021/05/09 03:36:50;;;;;;;;;;;14.90;80.00;;;;;;4303798;33;20010;-71
2021/05/09 03:39:17;;;;;;;;;;;14.90;79.90;;;;;;4303280;33;20002;-71
2021/05/09 03:41:46;;;;;;;;;;;14.80;79.70;;;;;;4303431;33;20396;-71
2021/05/09 03:44:13;;;;;;;;;;;14.90;79.80;;;;;;4303470;33;20431;-71
2021/05/09 03:46:46;;;;;;;;;;;14.80;79.70;;;;;;4302971;33;20090;-71
2021/05/09 03:49:12;;;;;;;;;;;14.90;79.60;;;;;;4303226;33;20018;-71
2021/05/09 03:51:39;;;;;;;;;;;14.90;79.50;;;;;;4302940;33;20018;-71
2021/05/09 03:54:07;;;;;;;;;;;14.90;79.40;;;;;;4303312;33;20016;-71
2021/05/09 03:56:37;;;;;;;;;;;14.90;79.20;;;;;;4302647;33;20384;-71
2021/05/09 03:59:09;;;;;;;;;;;14.90;79.20;;;;;;4303265;33;20020;-71
2021/05/09 04:01:36;;;;;;;;;;;14.90;79.10;;;;;;4303137;33;20006;-71
2021/05/09 04:04:03;;;;;;;;;;;14.90;79.00;;;;;;4303271;33;20363;-71
2021/05/09 04:06:29;;;;;;;;;;;14.90;79.00;;;;;;4303010;33;20024;-71
2021/05/09 04:08:56;;;;;;;;;;;14.90;79.00;;;;;;4302951;33;20404;-71
2021/05/09 04:11:23;;;;;;;;;;;14.90;78.90;;;;;;4302834;33;20052;-71
2021/05/09 04:13:50;;;;;;;;;;;14.90;78.90;;;;;;4290045;33;20020;-71
2021/05/09 04:16:16;;;;;;;;;;;14.90;78.80;;;;;;4302326;33;20021;-71
2021/05/09 04:18:43;;;;;;;;;;;14.90;78.70;;;;;;4302555;33;20010;-71
2021/05/09 04:21:10;;;;;;;;;;;14.90;78.70;;;;;;4302569;33;20022;-71
2021/05/09 04:23:37;;;;;;;;;;;14.90;78.60;;;;;;4302424;33;20395;-71
2021/05/09 04:26:03;;;;;;;;;;;14.90;78.50;;;;;;4302542;33;20013;-71
2021/05/09 04:28:30;;;;;;;;;;;14.90;78.40;;;;;;4302804;33;20028;-71
2021/05/09 04:30:57;;;;;;;;;;;14.90;78.40;;;;;;4303169;33;20003;-71
2021/05/09 04:33:25;;;;;;;;;;;14.90;78.30;;;;;;4302551;33;20016;-71
2021/05/09 04:35:54;;;;;;;;;;;14.90;78.20;;;;;;4302207;33;20011;-71
2021/05/09 04:38:21;;;;;;;;;;;14.90;78.30;;;;;;4302302;33;20041;-71
2021/05/09 04:40:48;;;;;;;;;;;14.90;78.20;;;;;;4302709;33;20018;-71
2021/05/09 04:43:17;;;;;;;;;;;14.90;78.20;;;;;;4302427;33;20024;-71
2021/05/09 04:45:53;;;;;;;;;;;14.90;78.20;;;;;;4289535;33;20039;-71
2021/05/09 04:48:21;;;;;;;;;;;14.90;78.10;;;;;;4289443;33;20014;-71
2021/05/09 04:50:48;;;;;;;;;;;14.90;78.30;;;;;;4302481;33;20014;-71
2021/05/09 04:53:25;;;;;;;;;;;14.90;78.20;;;;;;4289307;33;20032;-71
2021/05/09 04:55:52;;;;;;;;;;;14.80;78.20;;;;;;4301949;33;20049;-71
2021/05/09 04:58:19;;;;;;;;;;;14.90;78.20;;;;;;4302188;33;20069;-71
2021/05/09 05:00:45;;;;;;;;;;;14.90;78.20;;;;;;4302180;33;20025;-71
2021/05/09 05:03:16;;;;;;;;;;;14.90;78.20;;;;;;4301986;33;20039;-71
2021/05/09 05:05:42;;;;;;;;;;;14.90;78.20;;;;;;4302673;33;20061;-71
2021/05/09 05:08:09;;;;;;;;;;;14.90;78.20;;;;;;4289475;33;20069;-71
2021/05/09 05:10:36;;;;;;;;;;;14.90;78.20;;;;;;4302073;33;20020;-71
2021/05/09 05:13:02;;;;;;;;;;;14.80;78.20;;;;;;4302664;33;19999;-71
2021/05/09 05:15:31;;;;;;;;;;;14.80;78.30;;;;;;4302370;33;20073;-71
2021/05/09 05:17:58;;;;;;;;;;;14.80;78.30;;;;;;4302387;33;20006;-71
2021/05/09 05:20:27;;;;;;;;;;;14.90;78.60;;;;;;4302341;33;20408;-71
2021/05/09 05:22:54;;;;;;;;;;;14.90;78.60;;;;;;4302768;33;20370;-71
2021/05/09 05:25:20;;;;;;;;;;;14.90;78.80;;;;;;4301995;33;20014;-71
2021/05/09 05:27:47;;;;;;;;;;;14.90;79.00;;;;;;4302270;33;20014;-71
2021/05/09 05:30:14;;;;;;;;;;;14.90;79.20;;;;;;4303414;33;20425;-71
2021/05/09 05:32:41;;;;;;;;;;;14.90;79.90;;;;;;4305040;33;20021;-70
2021/05/09 05:35:08;;;;;;;;;;;14.90;80.00;;;;;;4291583;33;20372;-71
2021/05/09 05:37:37;;;;;;;;;;;14.90;79.20;;;;;;4304470;33;20018;-71
2021/05/09 05:40:04;;;;;;;;;;;14.90;79.30;;;;;;4305222;33;20371;-71
2021/05/09 05:42:31;;;;;;;;;;;14.90;79.40;;;;;;4304640;33;20021;-70
2021/05/09 05:44:58;;;;;;;;;;;14.90;80.20;;;;;;4305099;33;20002;-70
2021/05/09 05:47:24;;;;;;;;;;;15.00;79.50;;;;;;4305054;33;20396;-70
2021/05/09 05:49:55;;;;;;;;;;;15.00;79.60;;;;;;4305043;33;20016;-71
2021/05/09 05:52:21;;;;;;;;;;;15.00;79.60;;;;;;4304357;33;20048;-70
2021/05/09 05:54:48;;;;;;;;;;;15.00;79.70;;;;;;4304961;33;20506;-70
2021/05/09 05:57:15;;;;;;;;;;;15.00;79.70;;;;;;4305065;33;20024;-70
2021/05/09 05:59:42;;;;;;;;;;;15.00;79.80;;;;;;4304709;33;20020;-70
2021/05/09 06:02:08;;;;;;;;;;;15.00;80.00;;;;;;4291418;33;20014;-70
2021/05/09 06:04:38;;;;;;;;;;;15.00;79.90;;;;;;4304887;33;20090;-70
2021/05/09 06:07:05;;;;;;;;;;;15.10;80.20;;;;;;4304459;33;20003;-70
2021/05/09 06:09:37;;;;;;;;;;;15.10;80.00;;;;;;4304528;33;20008;-70
2021/05/09 06:12:10;;;;;;;;;;;15.10;80.10;;;;;;4304808;33;20002;-70
2021/05/09 06:14:37;;;;;;;;;;;15.10;80.00;;;;;;4304619;33;20006;-70
2021/05/09 06:17:03;;;;;;;;;;;15.10;80.10;;;;;;4304727;33;20016;-70
2021/05/09 06:19:33;;;;;;;;;;;15.20;80.20;;;;;;4304206;33;20017;-70
2021/05/09 06:21:59;;;;;;;;;;;15.20;80.40;;;;;;4304351;33;20058;-70
2021/05/09 06:24:29;;;;;;;;;;;15.20;80.50;;;;;;4291410;33;20073;-70
2021/05/09 06:26:58;;;;;;;;;;;15.20;80.30;;;;;;4304535;33;20010;-70
2021/05/09 06:29:25;;;;;;;;;;;15.30;80.40;;;;;;4304391;33;20008;-70
2021/05/09 06:31:52;;;;;;;;;;;15.30;80.50;;;;;;4304069;33;20013;-70
2021/05/09 06:34:18;;;;;;;;;;;15.40;81.30;;;;;;4291040;33;20035;-70
2021/05/09 06:36:51;;;;;;;;;;;15.40;80.60;;;;;;4304484;33;20352;-70
2021/05/09 06:39:25;;;;;;;;;;;15.40;80.40;;;;;;4304397;33;20010;-70
2021/05/09 06:41:59;;;;;;;;;;;15.40;80.50;;;;;;4304339;33;20009;-70
2021/05/09 06:44:29;;;;;;;;;;;15.50;81.00;;;;;;4291038;33;20003;-70
2021/05/09 06:46:56;;;;;;;;;;;15.50;80.70;;;;;;4304127;33;20045;-70
2021/05/09 06:49:23;;;;;;;;;;;15.50;80.60;;;;;;4304024;33;20016;-70
2021/05/09 06:51:52;;;;;;;;;;;15.60;80.90;;;;;;4304197;33;20069;-70
2021/05/09 06:54:26;;;;;;;;;;;15.60;81.10;;;;;;4303136;33;20036;-70
2021/05/09 06:56:53;;;;;;;;;;;15.60;81.10;;;;;;4290442;33;20392;-71
2021/05/09 06:59:20;;;;;;;;;;;15.70;80.80;;;;;;4303468;33;20066;-70
2021/05/09 07:01:46;;;;;;;;;;;15.70;81.50;;;;;;4303721;33;20107;-71
2021/05/09 07:04:18;;;;;;;;;;;15.70;81.10;;;;;;4304231;33;20402;-70
2021/05/09 07:06:44;;;;;;;;;;;15.80;81.40;;;;;;4303769;33;20047;-70
2021/05/09 07:09:11;;;;;;;;;;;15.80;81.10;;;;;;4303970;33;20006;-71
2021/05/09 07:11:38;;;;;;;;;;;15.90;81.30;;;;;;4290771;33;20006;-71
2021/05/09 07:14:08;;;;;;;;;;;15.90;81.20;;;;;;4303538;33;20001;-70
2021/05/09 07:16:37;;;;;;;;;;;15.90;81.20;;;;;;4303613;33;20010;-70
2021/05/09 07:19:06;;;;;;;;;;;16.00;81.00;;;;;;4303327;33;20018;-70
2021/05/09 07:21:41;;;;;;;;;;;16.00;81.10;;;;;;4290698;33;20014;-70
2021/05/09 07:24:08;;;;;;;;;;;16.00;81.20;;;;;;4304023;33;20074;-71
2021/05/09 07:26:35;;;;;;;;;;;16.00;81.10;;;;;;4303505;33;20351;-71
2021/05/09 07:29:04;;;;;;;;;;;16.10;82.10;;;;;;4303804;33;20024;-70
2021/05/09 07:31:32;;;;;;;;;;;16.10;82.10;;;;;;4303715;33;20010;-71
2021/05/09 07:34:01;;;;;;;;;;;16.20;81.80;;;;;;4290318;33;20012;-70
2021/05/09 07:36:27;;;;;;;;;;;16.30;82.70;;;;;;4303539;33;20003;-71
2021/05/09 07:38:54;;;;;;;;;;;16.30;82.20;;;;;;4303743;33;20396;-71
2021/05/09 07:41:20;;;;;;;;;;;16.40;82.30;;;;;;4303219;33;20006;-71
2021/05/09 07:43:50;;;;;;;;;;;16.50;82.80;;;;;;4303545;33;20069;-71
2021/05/09 07:46:17;;;;;;;;;;;16.60;81.50;;;;;;4303283;33;20006;-71
2021/05/09 07:48:43;;;;;;;;;;;16.60;81.60;;;;;;4303512;33;20014;-71
2021/05/09 07:51:13;;;;;;;;;;;16.60;81.40;;;;;;4303555;33;20012;-71
2021/05/09 07:53:40;;;;;;;;;;;16.60;81.70;;;;;;4289060;33;20105;-70
2021/05/09 07:56:07;;;;;;;;;;;16.60;81.40;;;;;;4289951;33;20325;-70
2021/05/09 07:58:33;;;;;;;;;;;16.60;81.50;;;;;;4303147;33;20016;-71
2021/05/09 08:01:03;;;;;;;;;;;16.70;81.40;;;;;;4303133;33;20559;-71
2021/05/09 08:03:30;;;;;;;;;;;16.70;81.60;;;;;;4302029;33;20455;-71
2021/05/09 08:05:57;;;;;;;;;;;16.80;81.70;;;;;;4301533;33;20048;-71
2021/05/09 08:08:30;;;;;;;;;;;16.80;81.70;;;;;;4302910;33;20011;-71
2021/05/09 08:10:58;;;;;;;;;;;16.80;81.40;;;;;;4302929;33;20419;-71
2021/05/09 08:13:25;;;;;;;;;;;16.90;81.10;;;;;;4302686;33;20020;-71
2021/05/09 08:15:54;;;;;;;;;;;16.90;81.50;;;;;;4302688;33;19998;-71
2021/05/09 08:18:24;;;;;;;;;;;17.00;81.20;;;;;;4303152;33;20473;-71
2021/05/09 08:20:51;;;;;;;;;;;17.00;81.40;;;;;;4302614;33;20024;-71
2021/05/09 08:23:18;;;;;;;;;;;17.00;81.20;;;;;;4302913;33;20006;-71
2021/05/09 08:25:47;;;;;;;;;;;17.10;81.50;;;;;;4302863;33;20039;-71
2021/05/09 08:28:13;;;;;;;;;;;17.20;80.80;;;;;;4302751;33;20006;-71
2021/05/09 08:30:40;;;;;;;;;;;17.30;80.40;;;;;;4301763;33;20069;-71
2021/05/09 08:33:07;;;;;;;;;;;17.50;80.50;;;;;;4302968;33;20048;-71
2021/05/09 08:35:36;;;;;;;;;;;17.50;80.00;;;;;;4302865;33;20363;-71
2021/05/09 08:38:04;;;;;;;;;;;17.60;79.90;;;;;;4302642;33;20392;-70
2021/05/09 08:40:33;;;;;;;;;;;17.60;79.50;;;;;;4289536;33;20343;-70
2021/05/09 08:43:00;;;;;;;;;;;17.70;79.60;;;;;;4302662;33;20065;-70
2021/05/09 08:45:27;;;;;;;;;;;17.70;79.30;;;;;;4301372;33;20391;-71
2021/05/09 08:47:55;;;;;;;;;;;17.70;79.10;;;;;;4302692;33;20014;-70
2021/05/09 08:50:26;;;;;;;;;;;17.80;79.20;;;;;;4301380;33;20007;-70
2021/05/09 08:52:53;;;;;;;;;;;17.80;79.00;;;;;;4302753;33;20016;-71
2021/05/09 08:55:26;;;;;;;;;;;17.90;79.50;;;;;;4302598;33;20104;-71
2021/05/09 08:57:54;;;;;;;;;;;17.90;78.60;;;;;;4302524;33;20010;-71
2021/05/09 09:00:22;;;;;;;;;;;17.90;78.80;;;;;;4302940;33;20002;-71
2021/05/09 09:03:03;;;;;;;;;;;18.00;78.90;;;;;;4278061;33;20006;-71
2021/05/09 09:05:36;;;;;;;;;;;18.10;78.20;;;;;;4304051;33;20105;-71
2021/05/09 09:08:03;;;;;;;;;;;18.20;78.40;;;;;;4305634;33;20418;-72
2021/05/09 09:10:32;;;;;;;;;;;18.40;78.20;;;;;;4305583;33;20084;-71
2021/05/09 09:13:03;;;;;;;;;;;18.40;77.50;;;;;;4292263;33;20024;-71
2021/05/09 09:15:46;;;;;;;;;;;18.50;77.50;;;;;;4291996;33;20077;-71
2021/05/09 09:18:31;;;;;;;;;;;18.60;77.20;;;;;;4304850;33;19998;-70
2021/05/09 09:21:01;;;;;;;;;;;18.70;76.80;;;;;;4305078;33;20446;-71
2021/05/09 09:23:44;;;;;;;;;;;18.80;76.70;;;;;;4305429;33;20010;-71
2021/05/09 09:26:23;;;;;;;;;;;18.80;76.90;;;;;;4305101;33;20483;-71
2021/05/09 09:28:50;;;;;;;;;;;18.90;76.40;;;;;;4305074;33;20058;-71
2021/05/09 09:31:17;;;;;;;;;;;19.00;76.30;;;;;;4291916;33;20004;-71
2021/05/09 09:33:50;;;;;;;;;;;19.00;75.70;;;;;;4305413;33;20010;-71
2021/05/09 09:36:29;;;;;;;;;;;19.10;76.00;;;;;;4305068;33;20420;-72
2021/05/09 09:38:56;;;;;;;;;;;19.20;75.60;;;;;;4303860;33;20011;-72
2021/05/09 09:41:26;;;;;;;;;;;19.30;75.70;;;;;;4304938;33;19998;-72
2021/05/09 09:44:03;;;;;;;;;;;19.40;75.00;;;;;;4304986;33;20014;-72
2021/05/09 09:46:31;;;;;;;;;;;19.60;74.90;;;;;;4305016;33;20073;-72
2021/05/09 09:48:58;;;;;;;;;;;19.60;74.20;;;;;;4292277;33;20030;-72
2021/05/09 09:51:25;;;;;;;;;;;19.70;74.20;;;;;;4303745;33;20450;-72
2021/05/09 09:53:56;;;;;;;;;;;19.80;73.10;;;;;;4304932;33;20412;-71
2021/05/09 09:56:24;;;;;;;;;;;19.90;72.10;;;;;;4291929;33;20024;-72
2021/05/09 09:58:53;;;;;;;;;;;20.00;71.40;;;;;;4304800;33;20005;-72
2021/05/09 10:01:21;;;;;;;;;;;20.10;72.30;;;;;;4303572;33;20392;-72
2021/05/09 10:03:52;;;;;;;;;;;20.10;72.40;;;;;;4303224;33;20026;-72
2021/05/09 10:06:20;;;;;;;;;;;20.10;71.80;;;;;;4304992;33;20010;-72
2021/05/09 10:08:46;;;;;;;;;;;20.20;71.30;;;;;;4304833;33;20016;-71
2021/05/09 10:11:14;;;;;;;;;;;20.20;71.80;;;;;;4304782;33;20154;-72
2021/05/09 10:13:41;;;;;;;;;;;20.20;71.60;;;;;;4304451;33;20087;-71
2021/05/09 10:16:14;;;;;;;;;;;20.30;72.20;;;;;;4304384;33;19998;-71
2021/05/09 10:18:44;;;;;;;;;;;20.30;72.10;;;;;;4291563;33;20490;-71
2021/05/09 10:21:12;;;;;;;;;;;20.30;71.70;;;;;;4304731;33;20412;-71
2021/05/09 10:23:57;;;;;;;;;;;20.30;72.10;;;;;;4304599;33;20430;-71
2021/05/09 10:26:30;;;;;;;;;;;20.40;72.10;;;;;;4304490;33;20047;-70
2021/05/09 10:28:57;;;;;;;;;;;20.40;72.20;;;;;;4304722;33;20001;-71
2021/05/09 10:31:28;;;;;;;;;;;20.40;71.60;;;;;;4304516;33;20010;-71
2021/05/09 10:33:58;;;;;;;;;;;20.40;71.40;;;;;;4304232;33;20025;-72
2021/05/09 10:36:27;;;;;;;;;;;20.50;71.50;;;;;;4304341;33;20425;-71
2021/05/09 10:39:06;;;;;;;;;;;20.50;71.40;;;;;;4304028;33;20400;-71
2021/05/09 10:41:34;;;;;;;;;;;20.60;71.50;;;;;;4303304;33;20010;-71
2021/05/09 10:44:20;;;;;;;;;;;20.80;71.50;;;;;;4304253;33;20062;-71
2021/05/09 10:47:00;;;;;;;;;;;20.90;70.70;;;;;;4304235;33;20020;-71
2021/05/09 10:49:26;;;;;;;;;;;21.00;70.50;;;;;;4303751;33;20396;-71
2021/05/09 10:51:53;;;;;;;;;;;21.20;70.10;;;;;;4303090;33;20018;-71
2021/05/09 10:54:21;;;;;;;;;;;21.30;68.00;;;;;;4304175;33;20075;-71
2021/05/09 10:56:49;;;;;;;;;;;21.40;67.50;;;;;;4304049;33;20014;-71
2021/05/09 10:59:16;;;;;;;;;;;21.50;67.40;;;;;;4304117;33;20039;-71
2021/05/09 11:01:42;;;;;;;;;;;21.70;66.30;;;;;;4290351;33;20174;-72
2021/05/09 11:04:10;;;;;;;;;;;21.80;64.50;;;;;;4304085;33;20408;-71
2021/05/09 11:06:38;;;;;;;;;;;21.90;65.20;;;;;;4303729;33;20006;-71
2021/05/09 11:09:10;;;;;;;;;;;22.00;64.40;;;;;;4303945;33;20423;-71
2021/05/09 11:11:37;;;;;;;;;;;22.10;63.50;;;;;;4303026;33;20335;-72
2021/05/09 11:14:05;;;;;;;;;;;22.10;64.50;;;;;;4290607;33;20024;-71
2021/05/09 11:16:36;;;;;;;;;;;22.10;65.60;;;;;;4304038;33;20016;-71
2021/05/09 11:19:03;;;;;;;;;;;22.10;63.90;;;;;;4303373;33;20352;-71
2021/05/09 11:21:34;;;;;;;;;;;22.10;63.80;;;;;;4303839;33;20002;-70
2021/05/09 11:24:02;;;;;;;;;;;22.00;63.80;;;;;;4303734;33;20121;-70
2021/05/09 11:26:46;;;;;;;;;;;22.10;64.40;;;;;;4303751;33;20049;-71
2021/05/09 11:29:14;;;;;;;;;;;22.10;63.60;;;;;;4290498;33;20024;-70
2021/05/09 11:31:42;;;;;;;;;;;22.10;63.40;;;;;;4290595;33;20065;-71
2021/05/09 11:34:09;;;;;;;;;;;22.20;62.20;;;;;;4290267;33;20015;-71
2021/05/09 11:36:37;;;;;;;;;;;22.30;63.50;;;;;;4303535;33;20015;-70
2021/05/09 11:39:10;;;;;;;;;;;22.30;63.80;;;;;;4303075;33;20010;-71
2021/05/09 11:41:52;;;;;;;;;;;22.40;63.50;;;;;;4303145;33;20044;-71
2021/05/09 11:44:19;;;;;;;;;;;22.40;63.20;;;;;;4303245;33;20018;-70
2021/05/09 11:46:46;;;;;;;;;;;22.40;63.90;;;;;;4303234;33;20019;-70
2021/05/09 11:49:21;;;;;;;;;;;22.40;64.00;;;;;;4303237;33;20011;-71
2021/05/09 11:51:51;;;;;;;;;;;22.30;63.40;;;;;;4303365;33;20032;-71
2021/05/09 11:54:19;;;;;;;;;;;22.20;63.20;;;;;;4303109;33;20367;-70
2021/05/09 11:56:50;;;;;;;;;;;22.20;63.20;;;;;;4303304;33;20010;-70
2021/05/09 11:59:29;;;;;;;;;;;22.20;63.30;;;;;;4303283;33;20010;-71
2021/05/09 12:01:58;;;;;;;;;;;22.10;63.60;;;;;;4302732;33;20009;-71
2021/05/09 12:04:29;;;;;;;;;;;22.10;63.80;;;;;;4302581;33;20380;-71
2021/05/09 12:06:57;;;;;;;;;;;22.10;63.80;;;;;;4289738;33;20380;-71
2021/05/09 12:09:24;;;;;;;;;;;22.00;64.00;;;;;;4303053;33;20007;-71
2021/05/09 12:11:51;;;;;;;;;;;22.00;63.90;;;;;;4302900;33;20058;-71
2021/05/09 12:14:18;;;;;;;;;;;22.00;63.30;;;;;;4302070;33;20014;-71
2021/05/09 12:16:47;;;;;;;;;;;22.10;63.40;;;;;;4301991;33;20007;-71
2021/05/09 12:19:15;;;;;;;;;;;22.10;63.80;;;;;;4303276;33;20408;-71
2021/05/09 12:22:02;;;;;;;;;;;22.10;63.10;;;;;;4303170;33;20013;-71
2021/05/09 12:24:28;;;;;;;;;;;22.20;63.30;;;;;;4303089;33;20007;-70
2021/05/09 12:27:07;;;;;;;;;;;22.30;63.60;;;;;;4302586;33;20021;-71
2021/05/09 12:29:46;;;;;;;;;;;22.30;64.10;;;;;;4303034;33;20020;-71
2021/05/09 12:32:25;;;;;;;;;;;22.30;63.50;;;;;;4302763;33;20002;-71
2021/05/09 12:35:06;;;;;;;;;;;22.30;63.60;;;;;;4289613;33;20393;-71
2021/05/09 12:37:34;;;;;;;;;;;22.30;64.10;;;;;;4302419;33;20015;-71
2021/05/09 12:40:17;;;;;;;;;;;22.30;63.50;;;;;;4302800;33;20069;-71
2021/05/09 12:43:03;;;;;;;;;;;22.30;63.50;;;;;;4301935;33;20010;-71
2021/05/09 12:45:29;;;;;;;;;;;22.30;62.30;;;;;;4302328;33;20069;-71
2021/05/09 12:48:22;;;;;;;;;;;22.30;62.30;;;;;;4302630;33;20002;-71
2021/05/09 12:50:59;;;;;;;;;;;22.30;63.10;;;;;;4288634;33;20033;-71
2021/05/09 12:53:39;;;;;;;;;;;22.40;62.60;;;;;;4289822;33;20010;-71
2021/05/09 12:56:16;;;;;;;;;;;22.40;62.70;;;;;;4302280;33;20057;-71
2021/05/09 12:58:58;;;;;;;;;;;22.50;62.50;;;;;;4301909;33;20014;-71
2021/05/09 13:01:24;;;;;;;;;;;22.50;63.30;;;;;;4302632;33;20020;-71
2021/05/09 13:03:51;;;;;;;;;;;22.50;63.40;;;;;;4301739;33;20099;-71
2021/05/09 13:06:21;;;;;;;;;;;22.50;63.00;;;;;;4302230;33;20053;-71
2021/05/09 13:08:48;;;;;;;;;;;22.50;61.30;;;;;;4302530;33;20003;-71
2021/05/09 13:11:14;;;;;;;;;;;22.60;61.90;;;;;;4302179;33;19999;-71
2021/05/09 13:13:41;;;;;;;;;;;22.70;61.50;;;;;;4302822;33;20072;-71
2021/05/09 13:16:10;;;;;;;;;;;22.80;61.60;;;;;;4302690;33;20027;-71
2021/05/09 13:18:48;;;;;;;;;;;22.90;60.70;;;;;;4302581;33;20048;-71
2021/05/09 13:21:15;;;;;;;;;;;23.10;59.50;;;;;;4289508;33;20028;-71
2021/05/09 13:23:42;;;;;;;;;;;23.20;59.50;;;;;;4302547;33;20024;-70
2021/05/09 13:26:11;;;;;;;;;;;23.30;59.60;;;;;;4302450;33;20014;-71
2021/05/09 13:28:43;;;;;;;;;;;23.40;58.70;;;;;;4302707;33;20396;-70
2021/05/09 13:31:13;;;;;;;;;;;23.40;58.70;;;;;;4302517;33;20014;-71
2021/05/09 13:33:40;;;;;;;;;;;23.50;58.30;;;;;;4302309;33;20404;-72
2021/05/09 13:36:09;;;;;;;;;;;23.60;59.10;;;;;;4301185;33;20484;-72
2021/05/09 13:38:35;;;;;;;;;;;23.60;59.00;;;;;;4301399;33;20032;-72
2021/05/09 13:41:02;;;;;;;;;;;23.70;59.10;;;;;;4302498;33;20018;-72
2021/05/09 13:43:32;;;;;;;;;;;23.70;58.20;;;;;;4289087;33;20013;-72
2021/05/09 13:46:05;;;;;;;;;;;23.80;58.80;;;;;;4301266;33;20065;-72
2021/05/09 13:48:31;;;;;;;;;;;23.80;58.90;;;;;;4302527;33;20069;-72
2021/05/09 13:50:58;;;;;;;;;;;23.90;58.80;;;;;;4302983;33;20017;-72
2021/05/09 13:53:26;;;;;;;;;;;23.90;57.40;;;;;;4305092;33;20014;-72
2021/05/09 13:55:53;;;;;;;;;;;23.90;57.00;;;;;;4304371;33;20015;-72
2021/05/09 13:58:21;;;;;;;;;;;24.00;56.80;;;;;;4304875;33;20006;-72
2021/05/09 14:00:48;;;;;;;;;;;24.10;56.60;;;;;;4304867;33;19998;-71
2021/05/09 14:03:17;;;;;;;;;;;24.10;55.70;;;;;;4304495;33;20050;-72
2021/05/09 14:05:46;;;;;;;;;;;24.10;56.30;;;;;;4291418;33;20062;-72
2021/05/09 14:08:16;;;;;;;;;;;24.10;55.70;;;;;;4304757;33;20020;-72
2021/05/09 14:10:43;;;;;;;;;;;24.10;55.80;;;;;;4291318;33;20002;-72
2021/05/09 14:13:09;;;;;;;;;;;24.10;55.80;;;;;;4291389;33;19999;-72
2021/05/09 14:15:39;;;;;;;;;;;24.10;56.40;;;;;;4304152;33;20020;-72
2021/05/09 14:18:06;;;;;;;;;;;24.00;56.60;;;;;;4304224;33;20009;-72
2021/05/09 14:20:34;;;;;;;;;;;24.00;56.80;;;;;;4303332;33;19998;-72
2021/05/09 14:23:01;;;;;;;;;;;24.00;56.20;;;;;;4304060;33;20372;-71
2021/05/09 14:25:30;;;;;;;;;;;24.00;55.60;;;;;;4304494;33;20003;-71